Time;durP1;ratioP1;P1;durP2;ratioP2;P2;SDS_P1;SDS_P2;PMS_P1;PMS_P2;Temp;Humidity;BMP_temperature;BMP_pressure;BME280_temperature;BME280_humidity;BME280_pressure;Samples;Min_cycle;Max_cycle;Signal;HPM_P1;HPM_P2
2023/01/29 00:00:21;;;;;;;15.98;10.75;;;;;;;-2.61;100.00;93732.81;2545412;23;20036;-83
2023/01/29 00:01:22;;;;;;;15.23;11.38;;;;;;;-2.73;100.00;93733.47;2533078;23;20038;-83
2023/01/29 00:02:23;;;;;;;13.35;9.88;;;;;;;-2.68;100.00;93738.53;2544549;23;20052;-82
2023/01/29 00:03:24;;;;;;;14.07;10.27;;;;;;;-2.76;100.00;93734.13;2544677;23;20033;-85
2023/01/29 00:04:27;;;;;;;16.40;10.98;;;;;;;-2.79;100.00;93729.53;2533402;23;20006;-83
2023/01/29 00:05:28;;;;;;;14.18;10.48;;;;;;;-2.67;100.00;93732.22;2545485;23;20012;-82
2023/01/29 00:06:29;;;;;;;13.38;9.73;;;;;;;-2.74;100.00;93736.41;2532494;23;20002;-84
2023/01/29 00:07:30;;;;;;;14.02;10.27;;;;;;;-2.75;100.00;93733.03;2545098;23;20065;-84
2023/01/29 00:08:34;;;;;;;13.98;10.35;;;;;;;-2.71;100.00;93739.19;2533193;23;20006;-84
2023/01/29 00:09:35;;;;;;;14.15;10.32;;;;;;;-2.79;100.00;93734.75;2544939;23;20005;-82
2023/01/29 00:10:36;;;;;;;14.23;10.38;;;;;;;-2.84;100.00;93740.94;2544646;23;20510;-86
2023/01/29 00:11:37;;;;;;;14.25;10.63;;;;;;;-2.83;100.00;93733.84;2532601;23;20085;-83
2023/01/29 00:12:38;;;;;;;14.00;10.88;;;;;;;-2.85;100.00;93730.81;2544966;23;20006;-86
2023/01/29 00:13:40;;;;;;;19.00;11.05;;;;;;;-2.56;100.00;93733.38;2545283;23;20013;-84
2023/01/29 00:14:41;;;;;;;15.40;10.60;;;;;;;-2.63;100.00;93733.13;2545710;23;20010;-83
2023/01/29 00:15:51;;;;;;;15.27;11.50;;;;;;;-2.65;100.00;93724.81;2548014;23;20005;-82
2023/01/29 00:16:52;;;;;;;14.40;11.18;;;;;;;-2.72;100.00;93721.97;2550146;23;20072;-81
2023/01/29 00:17:53;;;;;;;16.30;11.32;;;;;;;-2.71;100.00;93738.41;2546213;23;20029;-83
2023/01/29 00:18:54;;;;;;;14.98;11.20;;;;;;;-2.68;100.00;93729.91;2532937;23;20013;-85
2023/01/29 00:19:58;;;;;;;14.00;9.93;;;;;;;-2.71;100.00;93735.81;2532496;23;20013;-83
2023/01/29 00:20:59;;;;;;;13.82;10.35;;;;;;;-2.87;100.00;93732.94;2545375;23;20466;-82
2023/01/29 00:22:00;;;;;;;13.88;9.82;;;;;;;-2.63;100.00;93733.13;2532863;23;20124;-85
2023/01/29 00:23:01;;;;;;;14.38;10.50;;;;;;;-2.69;100.00;93731.75;2544907;23;20293;-84
2023/01/29 00:24:02;;;;;;;13.65;9.85;;;;;;;-2.83;100.00;93726.75;2545525;23;20029;-85
2023/01/29 00:25:04;;;;;;;11.75;9.27;;;;;;;-2.74;100.00;93724.09;2546360;23;20009;-83
2023/01/29 00:26:05;;;;;;;13.00;10.00;;;;;;;-2.78;100.00;93728.44;2557655;23;20498;-85
2023/01/29 00:27:06;;;;;;;13.90;9.52;;;;;;;-2.80;100.00;93733.22;2533389;23;20367;-82
2023/01/29 00:28:09;;;;;;;13.35;10.07;;;;;;;-2.87;100.00;93727.72;2533046;23;20010;-84
2023/01/29 00:29:10;;;;;;;12.55;10.10;;;;;;;-2.78;100.00;93728.44;2534386;23;20343;-84
2023/01/29 00:30:12;;;;;;;14.48;10.48;;;;;;;-2.69;100.00;93729.16;2533380;23;20344;-83
2023/01/29 00:31:20;;;;;;;15.77;10.50;;;;;;;-2.62;100.00;93724.19;2533852;23;20089;-82
2023/01/29 00:32:23;;;;;;;11.18;9.27;;;;;;;-2.71;100.00;93726.09;2548033;23;20360;-85
2023/01/29 00:33:24;;;;;;;13.02;9.90;;;;;;;-2.83;100.00;93721.53;2546085;23;20009;-84
2023/01/29 00:34:27;;;;;;;13.82;10.43;;;;;;;-2.69;100.00;93720.53;2546320;23;19997;-83
2023/01/29 00:35:28;;;;;;;12.50;9.77;;;;;;;-2.80;100.00;93720.91;2545736;23;20020;-81
2023/01/29 00:36:29;;;;;;;13.85;10.20;;;;;;;-2.83;100.00;93728.63;2533150;23;20014;-81
2023/01/29 00:37:30;;;;;;;11.90;10.00;;;;;;;-2.79;100.00;93719.06;2532864;23;20417;-84
2023/01/29 00:38:32;;;;;;;13.15;9.77;;;;;;;-2.82;100.00;93720.44;2544490;23;20009;-84
2023/01/29 00:39:37;;;;;;;13.80;10.40;;;;;;;-2.81;100.00;93721.22;2533762;23;20528;-83
2023/01/29 00:44:59;;;;;;;12.63;10.00;;;;;;;-2.74;100.00;93729.34;2570015;23;20024;-84
2023/01/29 00:46:00;;;;;;;13.55;9.80;;;;;;;-2.66;100.00;93728.53;2548000;23;20009;-86
2023/01/29 00:47:01;;;;;;;14.80;10.88;;;;;;;-2.73;100.00;93725.63;2545086;23;20009;-84
2023/01/29 00:48:03;;;;;;;14.80;10.88;;;;;;;-2.76;100.00;93733.38;2545359;23;20523;-85
2023/01/29 00:49:05;;;;;;;14.98;10.80;;;;;;;-2.82;100.00;93728.28;2545034;23;20005;-85
2023/01/29 00:50:09;;;;;;;14.65;10.48;;;;;;;-2.76;100.00;93726.28;2545527;23;20566;-84
2023/01/29 00:51:10;;;;;;;13.63;10.27;;;;;;;-2.85;100.00;93723.72;2546645;23;20006;-82
2023/01/29 00:52:23;;;;;;;16.27;10.45;;;;;;;-2.85;100.00;93725.56;2545087;23;20006;-82
2023/01/29 00:53:24;;;;;;;14.57;10.10;;;;;;;-2.75;100.00;93716.59;2560021;23;20001;-81
2023/01/29 00:54:25;;;;;;;14.68;10.68;;;;;;;-2.72;100.00;93718.53;2545810;23;20036;-85
2023/01/29 00:55:27;;;;;;;14.57;10.68;;;;;;;-2.85;100.00;93720.34;2532859;23;20002;-84
2023/01/29 00:56:29;;;;;;;13.55;10.85;;;;;;;-2.75;100.00;93724.44;2533394;23;20380;-83
2023/01/29 00:57:32;;;;;;;13.48;9.75;;;;;;;-2.86;100.00;93716.16;2545797;23;20056;-86
2023/01/29 00:58:33;;;;;;;12.90;9.80;;;;;;;-2.80;100.00;93722.78;2544600;23;20008;-82
2023/01/29 00:59:34;;;;;;;12.20;9.43;;;;;;;-2.70;100.00;93725.00;2544862;23;20101;-85
2023/01/29 01:00:35;;;;;;;12.02;9.30;;;;;;;-2.57;100.00;93723.25;2547430;23;20056;-81
2023/01/29 01:03:04;;;;;;;13.60;9.98;;;;;;;-2.45;100.00;93727.78;2552495;23;20657;-84
2023/01/29 01:04:06;;;;;;;11.82;8.73;;;;;;;-2.48;100.00;93723.19;2558700;23;20002;-84
2023/01/29 01:05:12;;;;;;;11.85;9.00;;;;;;;-2.54;100.00;93722.63;2545588;23;20014;-86
2023/01/29 01:06:13;;;;;;;12.43;8.98;;;;;;;-2.77;100.00;93727.34;2545969;23;20424;-83
2023/01/29 01:07:14;;;;;;;13.48;9.00;;;;;;;-2.81;100.00;93729.84;2545848;23;20001;-86
2023/01/29 01:11:04;;;;;;;13.27;9.30;;;;;;;-2.73;100.00;93733.47;2560862;23;20096;-85
2023/01/29 01:12:05;;;;;;;11.82;8.70;;;;;;;-2.70;100.00;93730.25;2546489;23;20005;-83
2023/01/29 01:13:07;;;;;;;11.45;8.48;;;;;;;-2.59;100.00;93725.38;2545506;23;20076;-85
2023/01/29 01:14:08;;;;;;;11.88;8.93;;;;;;;-2.53;100.00;93718.91;2545000;23;20032;-84
2023/01/29 01:15:09;;;;;;;11.50;8.77;;;;;;;-2.79;100.00;93724.28;2537374;23;20010;-84
2023/01/29 01:16:17;;;;;;;11.80;9.18;;;;;;;-2.81;100.00;93719.38;2534509;23;20006;-84
2023/01/29 01:17:18;;;;;;;10.85;8.13;;;;;;;-2.83;100.00;93715.53;2546397;23;20373;-83
2023/01/29 01:18:21;;;;;;;11.63;8.25;;;;;;;-2.66;100.00;93714.69;2533087;23;20013;-83
2023/01/29 01:19:22;;;;;;;10.40;8.05;;;;;;;-2.61;100.00;93717.09;2545311;23;20420;-85
2023/01/29 01:20:25;;;;;;;11.45;8.10;;;;;;;-2.81;100.00;93719.38;2532770;23;20006;-83
2023/01/29 01:21:26;;;;;;;11.07;8.65;;;;;;;-2.85;100.00;93721.09;2533224;23;20009;-84
2023/01/29 01:22:27;;;;;;;11.52;8.98;;;;;;;-2.65;100.00;93716.22;2545202;23;20012;-84
2023/01/29 01:23:28;;;;;;;12.63;8.68;;;;;;;-2.78;100.00;93725.81;2544579;23;20009;-85
2023/01/29 01:24:29;;;;;;;11.75;8.75;;;;;;;-2.84;100.00;93722.63;2532378;23;20014;-83
2023/01/29 01:25:30;;;;;;;10.55;8.13;;;;;;;-2.77;100.00;93727.34;2532851;23;20018;-83
2023/01/29 01:26:32;;;;;;;13.20;9.52;;;;;;;-2.74;100.00;93724.09;2532992;23;20002;-86
2023/01/29 01:27:33;;;;;;;12.25;8.52;;;;;;;-2.80;100.00;93726.16;2533003;23;20013;-84
2023/01/29 01:28:34;;;;;;;11.60;8.80;;;;;;;-2.71;100.00;93720.09;2532597;23;20018;-83
2023/01/29 01:29:35;;;;;;;12.70;9.63;;;;;;;-2.76;100.00;93728.91;2545411;23;20002;-85
2023/01/29 01:30:36;;;;;;;12.60;9.45;;;;;;;-2.85;100.00;93728.19;2557008;23;20001;-84
2023/01/29 01:31:37;;;;;;;13.25;9.35;;;;;;;-2.84;100.00;93727.09;2549741;23;20002;-82
2023/01/29 01:32:39;;;;;;;12.75;9.18;;;;;;;-2.94;100.00;93728.22;2534927;23;20064;-80
2023/01/29 01:33:47;;;;;;;13.98;9.57;;;;;;;-2.91;100.00;93722.34;2532727;23;20101;-83
2023/01/29 01:34:55;;;;;;;12.93;9.48;;;;;;;-2.89;100.00;93727.28;2534962;23;20006;-82
2023/01/29 01:36:08;;;;;;;12.77;8.90;;;;;;;-2.75;100.00;93732.28;2534707;23;20024;-84
2023/01/29 01:37:13;;;;;;;12.90;9.27;;;;;;;-2.85;100.00;93728.19;2537681;23;20010;-84
2023/01/29 01:38:14;;;;;;;13.05;8.88;;;;;;;-2.96;100.00;93721.75;2534164;23;20508;-83
2023/01/29 01:39:15;;;;;;;12.75;8.55;;;;;;;-2.93;100.00;93721.16;2532621;23;20005;-81
2023/01/29 01:40:22;;;;;;;14.57;9.43;;;;;;;-3.02;100.00;93730.88;2532444;23;20018;-85
2023/01/29 01:41:23;;;;;;;11.30;8.75;;;;;;;-2.99;100.00;93732.84;2534733;23;20006;-84
2023/01/29 01:42:31;;;;;;;12.48;8.90;;;;;;;-2.73;100.00;93730.88;2533227;23;20091;-83
2023/01/29 01:43:59;;;;;;;14.35;9.23;;;;;;;-2.81;100.00;93726.44;2547296;23;20001;-83
2023/01/29 01:45:06;;;;;;;11.32;8.52;;;;;;;-2.95;100.00;93733.75;2549886;23;20051;-83
2023/01/29 01:46:08;;;;;;;11.35;8.25;;;;;;;-2.97;100.00;93723.63;2534588;23;20428;-81
2023/01/29 01:47:09;;;;;;;11.35;8.80;;;;;;;-2.99;100.00;93720.53;2544348;23;20001;-82
2023/01/29 01:48:23;;;;;;;11.15;8.70;;;;;;;-2.92;100.00;93728.66;2532302;23;20014;-82
2023/01/29 01:49:24;;;;;;;12.13;9.20;;;;;;;-2.85;100.00;93722.94;2537520;23;20009;-85
2023/01/29 01:50:33;;;;;;;11.13;9.23;;;;;;;-2.90;100.00;93723.88;2544527;23;20001;-85
2023/01/29 01:51:39;;;;;;;12.90;9.30;;;;;;;-2.85;100.00;93728.19;2535318;23;20440;-84
2023/01/29 01:52:45;;;;;;;11.90;9.45;;;;;;;-2.88;100.00;93724.34;2534952;23;20005;-82
2023/01/29 01:54:11;;;;;;;10.88;8.77;;;;;;;-2.91;100.00;93722.34;2534768;23;20013;-83
2023/01/29 01:55:15;;;;;;;10.65;8.23;;;;;;;-2.99;100.00;93725.00;2547430;23;20355;-82
2023/01/29 01:56:23;;;;;;;10.43;8.40;;;;;;;-2.81;100.00;93716.78;2544796;23;20010;-83
2023/01/29 01:57:26;;;;;;;14.02;9.23;;;;;;;-2.71;100.00;93718.25;2558577;23;20008;-82
2023/01/29 01:58:33;;;;;;;13.27;9.90;;;;;;;-2.90;100.00;93718.63;2556740;23;19997;-83
2023/01/29 01:59:37;;;;;;;12.35;9.20;;;;;;;-2.89;100.00;93714.19;2547271;23;20006;-83
2023/01/29 02:00:38;;;;;;;12.70;9.90;;;;;;;-2.88;100.00;93713.13;2545223;23;20143;-83
2023/01/29 02:01:42;;;;;;;13.13;9.02;;;;;;;-2.87;100.00;93715.41;2544765;23;20005;-83
2023/01/29 02:10:12;;;;;;;10.40;7.15;;;;;;;-2.81;100.00;93713.38;2570257;23;20000;-82
2023/01/29 02:11:13;;;;;;;10.55;7.60;;;;;;;-2.92;100.00;93712.97;2552402;23;20016;-80
2023/01/29 02:12:16;;;;;;;9.60;8.07;;;;;;;-2.85;100.00;93704.66;2551952;23;20006;-81
2023/01/29 02:13:18;;;;;;;10.32;8.15;;;;;;;-2.86;100.00;93716.94;2548973;23;20056;-84
2023/01/29 02:14:19;;;;;;;10.15;7.95;;;;;;;-3.04;100.00;93713.63;2559742;23;20001;-84
2023/01/29 02:15:20;;;;;;;12.30;7.93;;;;;;;-2.97;100.00;93707.16;2534470;23;20032;-83
2023/01/29 02:16:22;;;;;;;9.02;7.07;;;;;;;-3.01;100.00;93711.50;2545834;23;20017;-81
2023/01/29 02:29:25;;;;;;;;;;;;;;;-3.09;100.00;93700.75;2620022;21;20483;-83
2023/01/29 02:31:05;;;;;;;10.57;8.32;;;;;;;-2.92;100.00;93709.59;2585271;23;20348;-83
2023/01/29 02:32:16;;;;;;;9.63;7.60;;;;;;;-2.97;100.00;93704.53;2576958;23;20330;-82
2023/01/29 02:33:30;;;;;;;10.75;8.30;;;;;;;-3.01;100.00;93711.50;2588401;22;20090;-82
2023/01/29 02:36:18;;;;;;;9.55;7.78;;;;;;;-3.07;100.00;93705.69;2591521;22;20053;-82
2023/01/29 02:37:26;;;;;;;8.98;7.75;;;;;;;-2.91;100.00;93709.28;2577861;23;20005;-81
2023/01/29 02:38:42;;;;;;;9.02;7.18;;;;;;;-2.85;100.00;93715.88;2587539;22;20024;-82
2023/01/29 02:39:54;;;;;;;9.68;8.13;;;;;;;-2.99;100.00;93714.53;2598491;22;20067;-79
2023/01/29 02:41:41;;;;;;;13.13;8.50;;;;;;;-3.01;100.00;93722.72;2587932;22;20008;-80
2023/01/29 02:43:07;;;;;;;9.98;7.32;;;;;;;-3.22;100.00;93712.19;2582557;23;20010;-82
2023/01/29 02:44:36;;;;;;;8.98;6.88;;;;;;;-3.22;100.00;93712.19;2534583;23;20009;-82
2023/01/29 02:46:15;;;;;;;21.63;10.85;;;;;;;-3.14;100.00;93714.00;2572550;23;20003;-82
2023/01/29 02:47:26;;;;;;;11.10;8.00;;;;;;;-3.26;100.00;93716.50;2531737;23;20017;-83
2023/01/29 02:48:42;;;;;;;10.30;7.57;;;;;;;-3.23;100.00;93715.88;2535942;23;20352;-81
2023/01/29 02:49:50;;;;;;;10.48;7.63;;;;;;;-3.28;100.00;93718.69;2567391;23;20009;-81
2023/01/29 02:50:57;;;;;;;11.73;8.07;;;;;;;-3.18;100.00;93712.31;2574710;23;20008;-81
2023/01/29 02:52:06;;;;;;;11.77;8.10;;;;;;;-3.26;100.00;93715.75;2586200;23;20015;-82
2023/01/29 02:53:14;;;;;;;10.18;7.55;;;;;;;-3.32;100.00;93708.06;2574938;23;20035;-80
2023/01/29 02:54:44;;;;;;;9.63;7.60;;;;;;;-3.26;100.00;93713.88;2575179;23;20004;-83
2023/01/29 02:55:57;;;;;;;10.00;7.70;;;;;;;-3.19;100.00;93710.81;2541243;23;20006;-82
2023/01/29 02:57:15;;;;;;;10.23;7.90;;;;;;;-3.11;100.00;93702.91;2543025;23;20013;-83
2023/01/29 02:58:40;;;;;;;14.02;9.35;;;;;;;-3.00;100.00;93710.41;2576816;23;20012;-82
2023/01/29 02:59:53;;;;;;;16.70;10.05;;;;;;;-3.09;100.00;93710.44;2565852;23;20316;-80
2023/01/29 03:00:59;;;;;;;15.82;10.23;;;;;;;-3.12;100.00;93717.06;2553892;23;20160;-82
2023/01/29 03:02:09;;;;;;;17.80;10.55;;;;;;;-3.15;100.00;93707.25;2563268;23;20100;-83
2023/01/29 03:03:22;;;;;;;15.43;9.50;;;;;;;-3.18;100.00;93715.69;2562617;23;20004;-81
2023/01/29 03:04:31;;;;;;;10.60;8.43;;;;;;;-3.19;100.00;93722.03;2562217;23;20005;-81
2023/01/29 03:05:44;;;;;;;11.73;8.85;;;;;;;-3.32;100.00;93721.16;2564562;23;20062;-83
2023/01/29 03:06:53;;;;;;;13.63;9.73;;;;;;;-3.20;100.00;93723.09;2587865;22;20026;-80
2023/01/29 03:08:00;;;;;;;13.13;8.73;;;;;;;-3.16;100.00;93713.56;2573240;23;20008;-82
2023/01/29 03:09:08;;;;;;;12.32;8.40;;;;;;;-3.21;100.00;93723.41;2550599;23;20013;-82
2023/01/29 03:10:34;;;;;;;12.38;8.68;;;;;;;-3.17;100.00;93727.69;2563585;23;20020;-82
2023/01/29 03:11:43;;;;;;;10.95;8.02;;;;;;;-3.19;100.00;93729.09;2578362;23;20012;-80
2023/01/29 03:12:58;;;;;;;10.80;7.63;;;;;;;-3.27;100.00;93728.03;2572810;23;20091;-83
2023/01/29 03:14:05;;;;;;;9.30;7.47;;;;;;;-3.12;100.00;93731.97;2553186;23;20005;-83
2023/01/29 03:15:25;;;;;;;9.48;7.25;;;;;;;-3.02;100.00;93728.25;2550945;23;20009;-81
2023/01/29 03:16:41;;;;;;;8.02;6.93;;;;;;;-2.99;100.00;93730.22;2558734;23;20044;-81
2023/01/29 03:18:21;;;;;;;8.70;7.10;;;;;;;-3.04;100.00;93721.47;2560095;23;20005;-81
2023/01/29 03:19:37;;;;;;;9.90;7.65;;;;;;;-3.12;100.00;93724.91;2542552;23;20452;-82
2023/01/29 03:20:49;;;;;;;9.35;7.18;;;;;;;-3.08;100.00;93727.66;2551372;23;20005;-81
2023/01/29 03:21:58;;;;;;;7.60;6.63;;;;;;;-3.09;100.00;93728.75;2558891;23;20027;-82
2023/01/29 03:23:36;;;;;;;9.57;7.10;;;;;;;-3.02;100.00;93720.41;2564129;23;20004;-80
2023/01/29 03:32:57;;;;;;;7.07;6.15;;;;;;;-3.12;100.00;93724.91;2536412;23;20013;-80
2023/01/29 03:34:40;;;;;;;7.60;6.22;;;;;;;-3.09;100.00;93720.91;2521416;23;20058;-82
2023/01/29 03:35:50;;;;;;;9.18;5.97;;;;;;;-3.15;100.00;93735.25;2537818;23;20133;-80
2023/01/29 03:36:56;;;;;;;8.70;6.20;;;;;;;-3.08;100.00;93733.66;2536664;23;19996;-79
2023/01/29 03:37:59;;;;;;;8.23;6.03;;;;;;;-3.09;100.00;93724.28;2550642;23;20013;-79
2023/01/29 03:39:00;;;;;;;6.50;5.68;;;;;;;-3.13;100.00;93727.84;2560748;23;20016;-83
2023/01/29 03:40:03;;;;;;;7.07;5.60;;;;;;;-3.15;100.00;93725.53;2543857;23;20013;-81
2023/01/29 03:41:10;;;;;;;7.50;6.20;;;;;;;-3.15;100.00;93725.53;2547092;23;20014;-84
2023/01/29 03:42:34;;;;;;;7.68;6.18;;;;;;;-3.12;100.00;93721.53;2557930;23;20016;-84
2023/01/29 03:43:54;;;;;;;7.68;5.93;;;;;;;-3.08;100.00;93725.81;2565865;23;20011;-83
2023/01/29 03:44:59;;;;;;;7.03;5.80;;;;;;;-3.13;100.00;93725.97;2569198;23;20011;-82
2023/01/29 03:46:27;;;;;;;14.07;9.23;;;;;;;-3.13;100.00;93718.13;2558467;23;20001;-82
2023/01/29 03:47:44;;;;;;;8.52;6.75;;;;;;;-3.13;100.00;93723.38;2568847;23;20009;-82
2023/01/29 03:49:16;;;;;;;6.97;6.10;;;;;;;-3.14;100.00;93713.25;2550297;23;20065;-80
2023/01/29 03:50:35;;;;;;;6.75;5.88;;;;;;;-3.17;100.00;93714.63;2567455;23;20484;-82
2023/01/29 03:51:59;;;;;;;8.77;6.30;;;;;;;-3.37;100.00;93715.31;2573210;23;20035;-81
2023/01/29 03:53:08;;;;;;;7.53;6.35;;;;;;;-3.41;100.00;93714.41;2574901;23;20004;-83
2023/01/29 03:54:25;;;;;;;6.95;6.25;;;;;;;-3.39;100.00;93718.22;2571131;23;20008;-82
2023/01/29 03:55:38;;;;;;;8.55;6.43;;;;;;;-3.23;100.00;93707.28;2559821;23;20009;-80
2023/01/29 03:56:49;;;;;;;8.52;6.45;;;;;;;-3.19;100.00;93716.78;2549459;23;20021;-83
2023/01/29 03:57:56;;;;;;;9.15;7.45;;;;;;;-3.23;100.00;93715.88;2561438;23;20009;-83
2023/01/29 03:59:12;;;;;;;8.75;7.03;;;;;;;-3.28;100.00;93718.69;2557688;23;20009;-82
2023/01/29 04:00:17;;;;;;;9.25;7.85;;;;;;;-3.26;100.00;93716.50;2568756;23;20000;-82
2023/01/29 04:01:26;;;;;;;11.23;8.32;;;;;;;-3.20;100.00;93720.50;2545897;23;20009;-79
2023/01/29 04:02:35;;;;;;;11.10;8.38;;;;;;;-3.24;100.00;93718.81;2558069;23;20004;-81
2023/01/29 04:04:00;;;;;;;11.55;8.63;;;;;;;-3.32;100.00;93712.53;2560227;23;20005;-83
2023/01/29 04:05:10;;;;;;;10.85;8.25;;;;;;;-3.38;100.00;93721.63;2574425;23;20075;-80
2023/01/29 04:06:29;;;;;;;9.15;7.50;;;;;;;-3.36;100.00;93727.31;2569311;23;20031;-81
2023/01/29 04:07:32;;;;;;;7.95;6.10;;;;;;;-3.39;100.00;93723.47;2563788;23;20028;-82
2023/01/29 04:08:44;;;;;;;6.47;5.50;;;;;;;-3.29;100.00;93727.59;2569619;23;20005;-80
2023/01/29 04:09:53;;;;;;;7.43;5.80;;;;;;;-3.46;100.00;93722.44;2569160;23;20008;-82
2023/01/29 04:10:59;;;;;;;9.00;6.75;;;;;;;-3.40;100.00;93721.16;2572621;22;20012;-79
2023/01/29 04:12:08;;;;;;;10.13;7.10;;;;;;;-3.34;100.00;93720.69;2568844;23;20000;-78
2023/01/29 04:13:12;;;;;;;9.23;6.65;;;;;;;-3.35;100.00;93713.91;2558124;23;20004;-83
2023/01/29 04:14:13;;;;;;;9.52;6.53;;;;;;;-3.25;100.00;93717.25;2558138;23;20020;-81
2023/01/29 04:15:16;;;;;;;7.10;5.72;;;;;;;-3.31;100.00;93716.69;2568855;23;20032;-83
2023/01/29 04:16:23;;;;;;;8.88;7.13;;;;;;;-3.30;100.00;93718.22;2569472;23;20012;-82
2023/01/29 04:17:33;;;;;;;6.82;5.40;;;;;;;-3.32;100.00;93721.16;2582919;22;20012;-82
2023/01/29 04:18:35;;;;;;;7.03;5.82;;;;;;;-3.28;100.00;93720.53;2568590;23;20035;-82
2023/01/29 04:19:36;;;;;;;5.70;5.10;;;;;;;-3.32;100.00;93712.53;2544608;23;20009;-83
2023/01/29 04:20:37;;;;;;;6.25;5.05;;;;;;;-3.36;100.00;93714.25;2556857;23;20084;-83
2023/01/29 04:21:39;;;;;;;6.47;5.00;;;;;;;-3.34;100.00;93709.47;2568538;23;20007;-82
2023/01/29 04:22:45;;;;;;;4.85;4.35;;;;;;;-3.27;100.00;93717.59;2569256;23;20004;-83
2023/01/29 04:23:45;;;;;;;7.00;4.93;;;;;;;-3.23;100.00;93720.34;2545636;23;20005;-81
2023/01/29 04:24:48;;;;;;;5.57;4.80;;;;;;;-3.20;100.00;93723.09;2544260;23;20091;-81
2023/01/29 04:26:06;;;;;;;5.32;4.45;;;;;;;-3.25;100.00;93728.47;2544725;23;20013;-82
2023/01/29 04:27:42;;;;;;;6.20;4.60;;;;;;;-3.22;100.00;93730.47;2566349;23;20163;-80
2023/01/29 04:28:48;;;;;;;5.65;4.30;;;;;;;-3.24;100.00;93724.81;2537134;23;20029;-81
2023/01/29 04:30:28;;;;;;;5.15;4.47;;;;;;;-3.25;100.00;93731.09;2562822;23;20009;-80
2023/01/29 04:31:53;;;;;;;5.93;4.80;;;;;;;-3.21;100.00;93729.41;2518322;23;20078;-79
2023/01/29 04:33:00;;;;;;;6.28;4.53;;;;;;;-3.25;100.00;93718.03;2546353;23;20044;-81
2023/01/29 04:34:26;;;;;;;5.03;4.53;;;;;;;-3.21;100.00;93720.78;2559864;23;20171;-82
2023/01/29 04:35:42;;;;;;;5.70;4.63;;;;;;;-3.27;100.00;93719.44;2562769;23;20012;-83
2023/01/29 04:37:01;;;;;;;5.85;4.20;;;;;;;-3.25;100.00;93723.25;2547959;23;20010;-82
2023/01/29 04:38:16;;;;;;;6.22;4.00;;;;;;;-3.30;100.00;93715.59;2548562;23;20069;-79
2023/01/29 04:39:28;;;;;;;4.95;4.10;;;;;;;-3.28;100.00;93716.06;2547698;23;20009;-81
2023/01/29 04:40:32;;;;;;;11.70;6.32;;;;;;;-3.23;100.00;93713.28;2549625;23;20044;-82
2023/01/29 04:41:36;;;;;;;9.23;6.45;;;;;;;-3.26;100.00;93716.50;2557264;23;20013;-82
2023/01/29 04:42:48;;;;;;;6.05;4.63;;;;;;;-3.23;100.00;93713.28;2557599;23;20005;-82
2023/01/29 04:44:13;;;;;;;6.28;4.40;;;;;;;-3.22;100.00;93714.03;2558878;23;20009;-81
2023/01/29 04:45:34;;;;;;;5.35;4.00;;;;;;;-3.28;100.00;93723.91;2556910;23;20210;-79
2023/01/29 04:46:51;;;;;;;4.25;3.85;;;;;;;-3.37;100.00;93725.78;2540203;23;20014;-80
2023/01/29 04:48:16;;;;;;;4.32;3.92;;;;;;;-3.43;100.00;93716.56;2550546;23;20083;-83
2023/01/29 04:49:30;;;;;;;5.15;4.53;;;;;;;-3.25;100.00;93714.66;2548417;23;20036;-82
2023/01/29 04:50:39;;;;;;;4.88;4.00;;;;;;;-3.13;100.00;93718.13;2546467;23;20016;-79
2023/01/29 04:51:40;;;;;;;5.40;3.92;;;;;;;-3.06;100.00;93709.81;2547341;23;20052;-82
2023/01/29 04:53:19;;;;;;;4.38;3.95;;;;;;;-3.17;100.00;93713.84;2556482;23;20416;-83
2023/01/29 04:54:57;;;;;;;6.90;4.65;;;;;;;-3.38;100.00;93711.16;2549261;23;20009;-82
2023/01/29 04:56:09;;;;;;;4.63;3.88;;;;;;;-3.46;100.00;93707.53;2559041;23;20036;-83
2023/01/29 04:57:15;;;;;;;5.30;4.35;;;;;;;-3.38;100.00;93708.53;2546657;23;20005;-80
2023/01/29 04:58:38;;;;;;;5.55;4.72;;;;;;;-3.45;100.00;93713.50;2545730;23;20092;-80
2023/01/29 04:59:47;;;;;;;4.13;3.72;;;;;;;-3.51;100.00;93709.50;2548386;23;20009;-81
2023/01/29 05:00:52;;;;;;;5.82;4.20;;;;;;;-3.43;100.00;93700.88;2547346;23;20119;-82
2023/01/29 05:01:53;;;;;;;5.18;4.57;;;;;;;-3.38;100.00;93703.31;2557445;23;20009;-80
2023/01/29 05:02:55;;;;;;;4.65;4.10;;;;;;;-3.46;100.00;93709.38;2556716;23;20009;-82
2023/01/29 05:03:59;;;;;;;4.95;4.10;;;;;;;-3.41;100.00;93701.34;2568750;23;20114;-84
2023/01/29 05:05:00;;;;;;;6.05;4.47;;;;;;;-3.38;100.00;93709.34;2568130;23;20011;-80
2023/01/29 05:06:03;;;;;;;9.98;7.15;;;;;;;-3.36;100.00;93704.56;2544476;23;20498;-81
2023/01/29 05:07:07;;;;;;;8.93;6.85;;;;;;;-3.41;100.00;93709.19;2557573;23;20493;-83
2023/01/29 05:08:12;;;;;;;8.43;6.70;;;;;;;-3.44;100.00;93707.19;2556204;23;20100;-80
2023/01/29 05:09:15;;;;;;;9.18;7.35;;;;;;;-3.38;100.00;93703.31;2545544;23;20010;-81
2023/01/29 05:10:19;;;;;;;7.35;6.53;;;;;;;-3.32;100.00;93707.31;2556445;23;20446;-83
2023/01/29 05:11:20;;;;;;;6.03;4.82;;;;;;;-3.36;100.00;93711.63;2543921;23;20005;-80
2023/01/29 05:12:24;;;;;;;4.85;4.35;;;;;;;-3.35;100.00;93706.09;2556695;23;20009;-81
2023/01/29 05:13:28;;;;;;;7.90;6.18;;;;;;;-3.46;100.00;93712.75;2581196;23;20054;-79
2023/01/29 05:14:31;;;;;;;7.50;6.72;;;;;;;-3.55;100.00;93702.31;2568862;23;20005;-83
2023/01/29 05:15:37;;;;;;;7.40;6.60;;;;;;;-3.52;100.00;93708.00;2568930;23;20032;-83
2023/01/29 05:16:42;;;;;;;5.68;5.18;;;;;;;-3.67;100.00;93704.03;2568417;23;20164;-83
2023/01/29 05:17:43;;;;;;;5.57;5.07;;;;;;;-3.65;100.00;93702.63;2544710;23;20396;-80
2023/01/29 05:18:45;;;;;;;5.13;4.63;;;;;;;-3.50;100.00;93705.84;2544084;23;20013;-80
2023/01/29 05:19:46;;;;;;;6.18;5.40;;;;;;;-3.54;100.00;93716.16;2556696;23;20005;-81
2023/01/29 05:20:48;;;;;;;5.60;5.10;;;;;;;-3.53;100.00;93712.44;2546386;23;20001;-79
2023/01/29 05:21:49;;;;;;;4.97;4.53;;;;;;;-3.52;100.00;93716.59;2549799;23;20009;-79
2023/01/29 05:22:50;;;;;;;5.50;4.90;;;;;;;-3.46;100.00;93714.59;2549554;23;20001;-79
2023/01/29 05:24:13;;;;;;;4.90;4.40;;;;;;;-3.46;100.00;93717.22;2559379;23;20008;-82
2023/01/29 05:25:24;;;;;;;4.40;4.00;;;;;;;-3.28;100.00;93710.06;2560803;23;20055;-82
2023/01/29 05:28:06;;;;;;;4.68;4.15;;;;;;;-3.26;100.00;93719.13;2568928;23;20465;-81
2023/01/29 05:29:06;;;;;;;4.90;3.47;;;;;;;-3.34;100.00;93722.53;2547985;23;20112;-82
2023/01/29 05:30:09;;;;;;;4.32;3.50;;;;;;;-3.21;100.00;93716.31;2543860;23;20360;-80
2023/01/29 05:31:10;;;;;;;3.92;3.53;;;;;;;-3.34;100.00;93717.28;2556662;23;20005;-80
2023/01/29 05:32:11;;;;;;;3.95;3.50;;;;;;;-3.31;100.00;93719.28;2556329;23;20008;-80
2023/01/29 05:33:14;;;;;;;4.35;3.88;;;;;;;-3.34;100.00;93717.28;2544236;23;20337;-81
2023/01/29 05:34:15;;;;;;;4.28;3.85;;;;;;;-3.01;100.00;93724.56;2544121;23;20005;-82
2023/01/29 05:35:16;;;;;;;4.32;3.92;;;;;;;-3.34;100.00;93717.28;2556347;23;20004;-81
2023/01/29 05:36:17;;;;;;;4.30;3.70;;;;;;;-3.42;100.00;93715.50;2580813;23;20060;-82
2023/01/29 05:37:18;;;;;;;5.05;4.10;;;;;;;-3.51;100.00;93722.56;2568466;23;20008;-80
2023/01/29 05:38:19;;;;;;;4.22;3.83;;;;;;;-3.46;100.00;93719.81;2556112;23;20005;-81
2023/01/29 05:39:20;;;;;;;4.13;3.70;;;;;;;-3.42;100.00;93720.72;2543755;23;20041;-84
2023/01/29 05:40:21;;;;;;;4.95;3.97;;;;;;;-3.38;100.00;93719.78;2556654;23;20028;-82
2023/01/29 05:41:22;;;;;;;4.25;3.85;;;;;;;-3.49;100.00;93717.81;2581671;23;20004;-82
2023/01/29 05:42:23;;;;;;;4.63;4.15;;;;;;;-3.56;100.00;93715.69;2555847;23;20012;-82
2023/01/29 05:43:24;;;;;;;6.22;3.95;;;;;;;-3.60;100.00;93712.94;2543929;23;20012;-80
2023/01/29 05:44:25;;;;;;;3.55;3.25;;;;;;;-3.62;100.00;93725.53;2555910;23;20001;-81
2023/01/29 05:45:27;;;;;;;4.10;3.70;;;;;;;-3.61;100.00;93715.84;2556266;23;20009;-80
2023/01/29 05:46:27;;;;;;;4.07;3.67;;;;;;;-3.65;100.00;93722.78;2568926;23;20004;-83
2023/01/29 05:47:28;;;;;;;4.57;4.18;;;;;;;-3.76;100.00;93718.97;2581127;23;20339;-81
2023/01/29 05:48:31;;;;;;;4.57;4.18;;;;;;;-3.73;100.00;93723.56;2555351;23;20344;-81
2023/01/29 05:49:33;;;;;;;4.55;4.05;;;;;;;-3.66;100.00;93729.06;2544829;23;20009;-81
2023/01/29 05:50:35;;;;;;;4.60;4.20;;;;;;;-3.66;100.00;93722.00;2568792;23;20335;-82
2023/01/29 05:51:36;;;;;;;4.38;3.97;;;;;;;-3.66;100.00;93718.63;2569083;23;20016;-81